createdAt,value
2018-12-25T00:00:18.831Z,4.30
2018-12-25T00:02:48.112Z,4.33
2018-12-25T00:05:17.361Z,4.67
2018-12-25T00:07:46.595Z,4.60
2018-12-25T00:10:15.877Z,4.77
2018-12-25T00:12:45.050Z,4.57
2018-12-25T00:15:14.255Z,4.87
2018-12-25T00:17:43.514Z,4.80
2018-12-25T00:20:12.689Z,4.87
2018-12-25T00:22:41.993Z,5.10
2018-12-25T00:25:11.197Z,4.70
2018-12-25T00:27:40.397Z,5.20
2018-12-25T00:30:09.594Z,4.87
2018-12-25T00:32:38.847Z,4.90
2018-12-25T00:35:08.102Z,4.77
2018-12-25T00:37:37.358Z,4.97
2018-12-25T00:40:06.561Z,5.23
2018-12-25T00:42:35.781Z,4.83
2018-12-25T00:45:04.912Z,4.63
2018-12-25T00:47:34.120Z,4.80
2018-12-25T00:50:03.328Z,4.63
2018-12-25T00:52:32.487Z,4.87
2018-12-25T00:55:01.704Z,4.50
2018-12-25T00:57:30.971Z,4.77
2018-12-25T01:00:00.257Z,4.20
2018-12-25T01:02:29.408Z,4.50
2018-12-25T01:04:58.651Z,4.27
2018-12-25T01:07:27.839Z,5.07
2018-12-25T01:09:57.241Z,4.20
2018-12-25T01:12:26.492Z,4.53
2018-12-25T01:14:55.706Z,4.43
2018-12-25T01:17:24.911Z,4.30
2018-12-25T01:19:54.084Z,4.40
2018-12-25T01:22:23.328Z,4.80
2018-12-25T01:24:52.499Z,4.43
2018-12-25T01:27:21.782Z,4.17
2018-12-25T01:29:51.075Z,4.17
2018-12-25T01:32:20.269Z,4.50
2018-12-25T01:34:49.491Z,4.60
2018-12-25T01:37:18.645Z,4.97
2018-12-25T01:39:47.907Z,4.53
2018-12-25T01:42:17.095Z,4.57
2018-12-25T01:44:46.269Z,4.27
2018-12-25T01:47:15.490Z,4.47
2018-12-25T01:49:44.699Z,4.87
2018-12-25T01:52:13.921Z,4.27
2018-12-25T01:54:43.089Z,4.20
2018-12-25T01:57:12.237Z,4.27
2018-12-25T01:59:41.392Z,4.60
2018-12-25T02:02:10.637Z,4.40
2018-12-25T02:04:39.799Z,4.37
2018-12-25T02:07:08.968Z,4.67
2018-12-25T02:09:38.146Z,4.60
2018-12-25T02:12:07.303Z,4.60
2018-12-25T02:14:36.488Z,4.47
2018-12-25T02:17:05.653Z,4.43
2018-12-25T02:19:40.196Z,4.93
2018-12-25T02:22:05.693Z,4.53
2018-12-25T02:24:34.862Z,4.80
2018-12-25T02:27:04.037Z,4.23
2018-12-25T02:29:33.229Z,4.40
2018-12-25T02:32:02.497Z,4.67
2018-12-25T02:34:31.750Z,4.50
2018-12-25T02:37:00.927Z,4.57
2018-12-25T02:39:30.156Z,4.57
2018-12-25T02:41:59.314Z,4.70
2018-12-25T02:44:28.508Z,4.40
2018-12-25T02:46:57.706Z,4.90
2018-12-25T02:49:27.117Z,4.53
2018-12-25T02:51:56.350Z,4.43
2018-12-25T02:54:26.739Z,4.90
2018-12-25T02:56:56.185Z,4.97
2018-12-25T02:59:25.373Z,5.10
2018-12-25T03:01:54.737Z,4.57
2018-12-25T03:04:24.006Z,4.63
2018-12-25T03:06:53.384Z,4.93
2018-12-25T03:09:22.603Z,4.70
2018-12-25T03:11:51.901Z,4.57
2018-12-25T03:14:21.058Z,4.80
2018-12-25T03:16:50.348Z,5.30
2018-12-25T03:19:19.584Z,4.23
2018-12-25T03:21:48.709Z,4.90
2018-12-25T03:24:17.987Z,5.00
2018-12-25T03:26:47.142Z,4.97
2018-12-25T03:29:16.327Z,4.50
2018-12-25T03:31:45.566Z,5.00
2018-12-25T03:34:14.824Z,5.40
2018-12-25T03:36:44.104Z,5.77
2018-12-25T03:39:13.276Z,5.40
2018-12-25T03:41:42.486Z,5.40
2018-12-25T03:44:11.612Z,5.30
2018-12-25T03:46:40.903Z,5.63
2018-12-25T03:49:10.135Z,5.10
2018-12-25T03:51:39.288Z,5.00
2018-12-25T03:54:08.472Z,5.20
2018-12-25T03:56:37.674Z,5.70
2018-12-25T03:59:06.935Z,5.07
2018-12-25T04:01:36.134Z,4.87
2018-12-25T04:04:05.281Z,5.30
2018-12-25T04:06:34.441Z,5.03
2018-12-25T04:09:04.399Z,5.23
2018-12-25T04:11:33.540Z,6.20
2018-12-25T04:14:02.695Z,5.73
2018-12-25T04:16:31.837Z,6.07
2018-12-25T04:19:01.005Z,5.43
2018-12-25T04:21:30.201Z,5.93
2018-12-25T04:23:59.408Z,6.17
2018-12-25T04:26:28.564Z,6.53
2018-12-25T04:28:57.754Z,5.70
2018-12-25T04:31:26.942Z,6.03
2018-12-25T04:33:56.159Z,5.80
2018-12-25T04:36:25.409Z,5.70
2018-12-25T04:38:54.643Z,6.27
2018-12-25T04:41:23.847Z,5.77
2018-12-25T04:43:53.134Z,5.87
2018-12-25T04:46:22.285Z,5.47
2018-12-25T04:48:51.541Z,5.80
2018-12-25T04:51:20.737Z,5.50
2018-12-25T04:53:49.943Z,5.80
2018-12-25T04:56:19.189Z,5.87
2018-12-25T04:58:48.410Z,5.33
2018-12-25T05:01:17.605Z,5.67
2018-12-25T05:03:46.817Z,5.60
2018-12-25T05:06:16.054Z,6.07
2018-12-25T05:08:45.329Z,5.90
2018-12-25T05:11:14.560Z,5.43
2018-12-25T05:13:43.798Z,5.23
2018-12-25T05:16:13.061Z,6.37
2018-12-25T05:18:42.195Z,5.67
2018-12-25T05:21:11.378Z,5.57
2018-12-25T05:23:40.579Z,5.53
2018-12-25T05:26:09.738Z,5.63
2018-12-25T05:28:38.908Z,5.63
2018-12-25T05:31:08.103Z,6.07
2018-12-25T05:33:37.410Z,6.43
2018-12-25T05:36:06.639Z,5.73
2018-12-25T05:38:35.841Z,6.10
2018-12-25T05:41:05.077Z,5.33
2018-12-25T05:43:34.286Z,5.40
2018-12-25T05:46:03.460Z,5.73
2018-12-25T05:48:32.600Z,6.33
2018-12-25T05:51:01.821Z,5.80
2018-12-25T05:53:30.976Z,5.90
2018-12-25T05:56:00.125Z,5.97
2018-12-25T05:58:29.309Z,6.07
2018-12-25T06:00:58.524Z,6.00
2018-12-25T06:03:27.678Z,5.80
2018-12-25T06:05:56.865Z,6.00
2018-12-25T06:08:26.084Z,5.87
2018-12-25T06:10:55.317Z,5.90
2018-12-25T06:13:24.485Z,6.17
2018-12-25T06:15:53.708Z,5.70
2018-12-25T06:18:22.854Z,5.63
2018-12-25T06:20:55.273Z,5.60
2018-12-25T06:23:23.070Z,5.73
2018-12-25T06:25:52.427Z,5.90
2018-12-25T06:28:21.604Z,5.17
2018-12-25T06:30:50.870Z,5.93
2018-12-25T06:33:20.127Z,5.60
2018-12-25T06:35:49.395Z,5.97
2018-12-25T06:38:18.597Z,6.20
2018-12-25T06:40:47.784Z,5.60
2018-12-25T06:43:16.957Z,6.17
2018-12-25T06:45:46.221Z,5.93
2018-12-25T06:48:15.510Z,6.23
2018-12-25T06:50:44.719Z,6.13
2018-12-25T06:53:13.965Z,5.97
2018-12-25T06:55:43.208Z,6.33
2018-12-25T06:58:12.410Z,5.87
2018-12-25T07:00:41.612Z,6.03
2018-12-25T07:03:10.782Z,5.73
2018-12-25T07:05:39.948Z,6.20
2018-12-25T07:08:09.322Z,6.33
2018-12-25T07:10:38.541Z,5.80
2018-12-25T07:13:07.732Z,5.83
2018-12-25T07:15:36.891Z,6.17
2018-12-25T07:18:06.082Z,6.20
2018-12-25T07:20:35.205Z,6.00
2018-12-25T07:23:04.388Z,6.37
2018-12-25T07:25:33.628Z,6.03
2018-12-25T07:28:02.924Z,5.83
2018-12-25T07:30:32.093Z,6.17
2018-12-25T07:33:01.275Z,5.57
2018-12-25T07:35:30.494Z,6.30
2018-12-25T07:37:59.751Z,5.60
2018-12-25T07:40:28.960Z,5.90
2018-12-25T07:42:58.102Z,5.90
2018-12-25T07:45:27.263Z,5.50
2018-12-25T07:47:56.489Z,5.87
2018-12-25T07:50:25.753Z,6.17
2018-12-25T07:52:54.967Z,5.93
2018-12-25T07:55:24.180Z,5.67
2018-12-25T07:57:53.567Z,5.27
2018-12-25T08:00:22.788Z,6.00
2018-12-25T08:02:52.257Z,5.83
2018-12-25T08:05:21.485Z,5.73
2018-12-25T08:07:50.720Z,5.40
2018-12-25T08:10:19.926Z,5.70
2018-12-25T08:12:49.086Z,6.10
2018-12-25T08:15:18.248Z,5.77
2018-12-25T08:17:47.454Z,5.80
2018-12-25T08:20:16.619Z,5.57
2018-12-25T08:22:45.932Z,5.37
2018-12-25T08:25:15.105Z,5.00
2018-12-25T08:27:44.323Z,5.50
2018-12-25T08:30:13.494Z,5.50
2018-12-25T08:32:42.683Z,5.27
2018-12-25T08:35:11.843Z,5.50
2018-12-25T08:37:41.054Z,5.07
2018-12-25T08:40:10.268Z,4.97
2018-12-25T08:42:39.555Z,4.80
2018-12-25T08:45:08.830Z,5.07
2018-12-25T08:47:38.116Z,5.10
2018-12-25T08:50:09.164Z,4.87
2018-12-25T08:52:38.378Z,5.10
2018-12-25T08:55:07.602Z,5.77
2018-12-25T08:57:36.754Z,5.23
2018-12-25T09:00:09.042Z,5.73
2018-12-25T09:02:38.388Z,5.77
2018-12-25T09:05:07.633Z,5.30
2018-12-25T09:07:36.910Z,5.43
2018-12-25T09:10:06.549Z,5.30
2018-12-25T09:12:35.797Z,5.57
2018-12-25T09:15:05.135Z,5.27
2018-12-25T09:17:34.348Z,5.93
2018-12-25T09:20:03.723Z,5.33
2018-12-25T09:22:32.863Z,6.33
2018-12-25T09:25:02.036Z,5.90
2018-12-25T09:27:31.300Z,6.23
2018-12-25T09:30:00.530Z,5.73
2018-12-25T09:32:29.741Z,6.73
2018-12-25T09:34:58.924Z,5.50
2018-12-25T09:37:28.176Z,5.60
2018-12-25T09:39:57.343Z,6.17
2018-12-25T09:42:26.480Z,6.03
2018-12-25T09:44:55.681Z,5.63
2018-12-25T09:47:24.987Z,5.80
2018-12-25T09:49:54.418Z,6.10
2018-12-25T09:52:23.639Z,5.70
2018-12-25T09:54:52.941Z,5.70
2018-12-25T09:57:22.114Z,6.40
2018-12-25T09:59:51.473Z,5.93
2018-12-25T10:02:20.610Z,5.37
2018-12-25T10:04:49.792Z,6.30
2018-12-25T10:07:18.957Z,6.40
2018-12-25T10:09:48.219Z,6.40
2018-12-25T10:12:17.412Z,6.30
2018-12-25T10:14:46.670Z,6.40
2018-12-25T10:17:15.798Z,6.30
2018-12-25T10:19:44.957Z,6.37
2018-12-25T10:22:14.149Z,6.53
2018-12-25T10:24:43.376Z,6.33
2018-12-25T10:27:12.552Z,6.57
2018-12-25T10:29:41.676Z,7.17
2018-12-25T10:32:10.858Z,6.23
2018-12-25T10:34:40.123Z,6.43
2018-12-25T10:37:09.330Z,6.90
2018-12-25T10:39:38.560Z,6.93
2018-12-25T10:42:07.751Z,7.07
2018-12-25T10:44:36.957Z,6.50
2018-12-25T10:47:06.185Z,6.47
2018-12-25T10:49:35.399Z,6.63
2018-12-25T10:52:11.459Z,6.77
2018-12-25T10:54:35.532Z,7.00
2018-12-25T10:57:04.722Z,6.63
2018-12-25T10:59:33.860Z,6.97
2018-12-25T11:02:03.164Z,6.50
2018-12-25T11:04:33.108Z,6.27
2018-12-25T11:07:02.298Z,6.40
2018-12-25T11:09:31.473Z,6.90
2018-12-25T11:12:00.590Z,6.60
2018-12-25T11:14:29.752Z,6.77
2018-12-25T11:16:58.924Z,6.57
2018-12-25T11:19:28.085Z,6.47
2018-12-25T11:21:57.265Z,6.70
2018-12-25T11:24:26.514Z,6.80
2018-12-25T11:26:55.755Z,7.40
2018-12-25T11:29:24.980Z,6.97
2018-12-25T11:31:54.468Z,6.50
2018-12-25T11:34:23.732Z,6.40
2018-12-25T11:36:52.999Z,6.57
2018-12-25T11:39:22.158Z,6.90
2018-12-25T11:41:51.464Z,6.47
2018-12-25T11:44:20.618Z,6.90
2018-12-25T11:46:49.767Z,6.80
2018-12-25T11:49:18.930Z,7.37
2018-12-25T11:51:48.077Z,7.10
2018-12-25T11:54:17.272Z,6.67
2018-12-25T11:56:46.446Z,6.90
2018-12-25T11:59:18.806Z,7.33
2018-12-25T12:01:48.173Z,7.03
2018-12-25T12:04:17.435Z,7.53
2018-12-25T12:06:46.680Z,6.43
2018-12-25T12:09:15.870Z,7.23
2018-12-25T12:11:45.052Z,7.37
2018-12-25T12:14:14.261Z,7.50
2018-12-25T12:16:43.456Z,7.23
2018-12-25T12:19:12.598Z,6.90
2018-12-25T12:21:41.824Z,6.70
2018-12-25T12:24:11.072Z,6.10
2018-12-25T12:26:40.261Z,6.27
2018-12-25T12:29:09.403Z,6.53
2018-12-25T12:31:38.609Z,6.60
2018-12-25T12:34:07.855Z,6.77
2018-12-25T12:36:37.017Z,6.37
2018-12-25T12:39:07.827Z,6.23
2018-12-25T12:41:37.075Z,6.47
2018-12-25T12:44:06.382Z,6.30
2018-12-25T12:46:35.530Z,6.20
2018-12-25T12:49:04.670Z,6.53
2018-12-25T12:51:33.873Z,7.60
2018-12-25T12:54:03.075Z,6.90
2018-12-25T12:56:32.272Z,6.77
2018-12-25T12:59:01.481Z,6.60
2018-12-25T13:01:30.664Z,6.90
2018-12-25T13:03:59.812Z,7.60
2018-12-25T13:06:29.023Z,6.70
2018-12-25T13:08:58.198Z,7.50
2018-12-25T13:11:27.390Z,7.90
2018-12-25T13:13:56.551Z,7.43
2018-12-25T13:16:25.824Z,7.07
2018-12-25T13:18:55.007Z,7.80
2018-12-25T13:21:24.222Z,7.20
2018-12-25T13:23:53.410Z,7.70
2018-12-25T13:26:22.643Z,8.27
2018-12-25T13:28:51.875Z,7.77
2018-12-25T13:31:21.066Z,7.73
2018-12-25T13:33:50.294Z,7.93
2018-12-25T13:36:19.484Z,8.00
2018-12-25T13:38:48.684Z,7.83
2018-12-25T13:41:17.881Z,8.30
2018-12-25T13:43:47.132Z,9.10
2018-12-25T13:46:16.357Z,8.20
2018-12-25T13:48:45.613Z,7.80
2018-12-25T13:51:14.779Z,8.27
2018-12-25T13:53:43.986Z,8.97
2018-12-25T13:56:13.182Z,8.87
2018-12-25T13:58:42.382Z,9.10
2018-12-25T14:01:11.601Z,9.07
2018-12-25T14:03:40.820Z,9.03
2018-12-25T14:06:10.012Z,8.83
2018-12-25T14:08:39.238Z,9.47
2018-12-25T14:11:08.484Z,9.60
2018-12-25T14:13:37.655Z,9.40
2018-12-25T14:16:06.903Z,10.03
2018-12-25T14:18:36.162Z,10.90
2018-12-25T14:21:05.385Z,10.10
2018-12-25T14:23:34.668Z,10.63
2018-12-25T14:26:03.944Z,10.13
2018-12-25T14:28:33.179Z,10.80
2018-12-25T14:31:02.367Z,11.57
2018-12-25T14:33:31.546Z,10.53
2018-12-25T14:36:00.720Z,10.33
2018-12-25T14:38:29.933Z,10.53
2018-12-25T14:40:59.161Z,10.93
2018-12-25T14:43:28.331Z,10.90
2018-12-25T14:45:57.543Z,11.30
2018-12-25T14:48:26.761Z,11.90
2018-12-25T14:50:55.981Z,12.17
2018-12-25T14:53:25.155Z,12.03
2018-12-25T14:55:54.550Z,11.83
2018-12-25T14:58:23.772Z,12.63
2018-12-25T15:00:53.486Z,12.27
2018-12-25T15:03:22.785Z,12.67
2018-12-25T15:05:52.069Z,13.13
2018-12-25T15:08:21.225Z,12.23
2018-12-25T15:10:50.470Z,12.73
2018-12-25T15:13:19.664Z,12.83
2018-12-25T15:15:48.845Z,14.17
2018-12-25T15:18:17.969Z,13.73
2018-12-25T15:20:47.139Z,12.80
2018-12-25T15:23:16.242Z,12.93
2018-12-25T15:25:45.402Z,13.17
2018-12-25T15:28:14.592Z,13.50
2018-12-25T15:30:43.913Z,13.77
2018-12-25T15:33:13.043Z,13.53
2018-12-25T15:35:42.197Z,13.13
2018-12-25T15:38:11.338Z,14.37
2018-12-25T15:40:40.473Z,13.60
2018-12-25T15:43:09.721Z,15.03
2018-12-25T15:45:38.863Z,14.23
2018-12-25T15:48:08.044Z,13.93
2018-12-25T15:50:37.218Z,13.90
2018-12-25T15:53:06.440Z,14.37
2018-12-25T15:55:35.676Z,14.70
2018-12-25T15:58:05.259Z,13.33
2018-12-25T16:00:34.453Z,14.23
2018-12-25T16:03:03.630Z,14.20
2018-12-25T16:05:32.765Z,14.10
2018-12-25T16:08:01.942Z,14.10
2018-12-25T16:10:31.149Z,13.90
2018-12-25T16:13:00.297Z,14.70
2018-12-25T16:15:29.487Z,13.30
2018-12-25T16:17:58.688Z,14.97
2018-12-25T16:20:27.862Z,14.73
2018-12-25T16:22:57.008Z,14.77
2018-12-25T16:25:26.166Z,14.60
2018-12-25T16:27:55.338Z,14.90
2018-12-25T16:30:24.473Z,15.43
2018-12-25T16:32:53.749Z,15.10
2018-12-25T16:35:22.944Z,14.33
2018-12-25T16:37:52.243Z,14.87
2018-12-25T16:40:21.463Z,13.73
2018-12-25T16:42:50.692Z,14.00
2018-12-25T16:45:19.976Z,15.93
2018-12-25T16:47:49.193Z,13.60
2018-12-25T16:50:18.433Z,14.53
2018-12-25T16:52:47.619Z,14.93
2018-12-25T16:55:16.899Z,14.70
2018-12-25T16:57:46.137Z,14.47
2018-12-25T17:00:15.334Z,14.40
2018-12-25T17:02:44.504Z,14.27
2018-12-25T17:05:13.696Z,14.87
2018-12-25T17:07:42.993Z,14.37
2018-12-25T17:10:12.246Z,13.40
2018-12-25T17:12:41.532Z,13.60
2018-12-25T17:15:10.683Z,13.17
2018-12-25T17:17:39.816Z,13.13
2018-12-25T17:20:09.242Z,14.10
2018-12-25T17:22:38.504Z,14.40
2018-12-25T17:25:07.704Z,13.43
2018-12-25T17:27:36.950Z,14.27
2018-12-25T17:30:07.312Z,13.73
2018-12-25T17:32:36.578Z,14.23
2018-12-25T17:35:05.772Z,13.30
2018-12-25T17:37:35.027Z,13.27
2018-12-25T17:40:04.228Z,13.93
2018-12-25T17:42:33.445Z,13.37
2018-12-25T17:45:02.737Z,13.40
2018-12-25T17:47:31.960Z,14.23
2018-12-25T17:50:01.256Z,13.97
2018-12-25T17:52:30.580Z,13.63
2018-12-25T17:54:59.814Z,12.97
2018-12-25T17:57:29.000Z,13.10
2018-12-25T17:59:58.216Z,12.90
2018-12-25T18:02:27.410Z,12.33
2018-12-25T18:04:56.695Z,12.53
2018-12-25T18:07:25.861Z,12.47
2018-12-25T18:09:55.088Z,13.10
2018-12-25T18:12:24.386Z,11.23
2018-12-25T18:14:53.734Z,12.57
2018-12-25T18:17:22.932Z,12.83
2018-12-25T18:19:52.452Z,12.03
2018-12-25T18:22:21.728Z,12.87
2018-12-25T18:24:50.955Z,12.53
2018-12-25T18:27:20.571Z,12.43
2018-12-25T18:29:49.796Z,13.20
2018-12-25T18:32:19.047Z,13.07
2018-12-25T18:34:48.398Z,13.03
2018-12-25T18:37:17.676Z,12.80
2018-12-25T18:39:55.658Z,13.13
2018-12-25T18:42:24.941Z,12.97
2018-12-25T18:44:54.361Z,12.07
2018-12-25T18:47:23.684Z,12.70
2018-12-25T18:49:52.981Z,12.83
2018-12-25T18:52:22.216Z,13.00
2018-12-25T18:54:51.684Z,12.90
2018-12-25T18:57:20.922Z,13.10
2018-12-25T18:59:50.119Z,12.53
2018-12-25T19:02:19.280Z,12.77
2018-12-25T19:04:48.472Z,13.33
2018-12-25T19:07:17.644Z,13.70
2018-12-25T19:09:46.873Z,13.80
2018-12-25T19:12:16.106Z,13.43
2018-12-25T19:15:18.821Z,13.00
2018-12-25T19:17:48.000Z,13.83
2018-12-25T19:20:17.253Z,13.83
2018-12-25T19:22:46.559Z,12.27
2018-12-25T19:25:15.785Z,13.07
2018-12-25T19:27:45.037Z,13.10
2018-12-25T19:30:14.536Z,13.83
2018-12-25T19:32:44.097Z,13.10
2018-12-25T19:35:13.357Z,13.47
2018-12-25T19:37:42.650Z,12.83
2018-12-25T19:40:11.887Z,12.20
2018-12-25T19:42:41.176Z,13.33
2018-12-25T19:45:10.454Z,14.07
2018-12-25T19:47:39.666Z,13.13
2018-12-25T19:50:08.878Z,13.77
2018-12-25T19:52:38.079Z,12.53
2018-12-25T19:55:07.727Z,13.57
2018-12-25T19:57:36.985Z,13.37
2018-12-25T20:00:08.012Z,13.00
2018-12-25T20:02:37.299Z,13.17
2018-12-25T20:05:25.334Z,13.23
2018-12-25T20:08:31.750Z,13.53
2018-12-25T20:12:01.949Z,14.10
2018-12-25T20:15:18.382Z,12.70
2018-12-25T20:18:23.889Z,12.77
2018-12-25T20:21:27.657Z,13.83
2018-12-25T20:24:19.795Z,13.27
2018-12-25T20:27:51.727Z,13.80
2018-12-25T20:31:10.192Z,13.53
2018-12-25T20:34:18.656Z,13.97
2018-12-25T20:37:33.326Z,13.23
2018-12-25T20:40:52.682Z,12.63
2018-12-25T20:43:48.953Z,13.53
2018-12-25T20:46:41.202Z,13.93
2018-12-25T20:50:00.436Z,13.60
2018-12-25T20:53:08.960Z,12.63
2018-12-25T20:56:14.952Z,12.80
2018-12-25T20:59:32.692Z,12.60
2018-12-25T21:02:36.768Z,12.47
2018-12-25T21:05:45.192Z,13.37
2018-12-25T21:08:51.717Z,12.40
2018-12-25T21:12:14.280Z,12.47
2018-12-25T21:15:36.751Z,12.53
2018-12-25T21:18:53.164Z,12.33
2018-12-25T21:21:51.892Z,12.10
2018-12-25T21:24:57.444Z,12.77
2018-12-25T21:27:34.240Z,12.33
2018-12-25T21:30:05.981Z,12.53
2018-12-25T21:32:37.993Z,12.20
2018-12-25T21:35:24.846Z,12.37
2018-12-25T21:37:54.632Z,11.80
2018-12-25T21:40:23.971Z,11.97
2018-12-25T21:42:53.818Z,12.10
2018-12-25T21:45:23.055Z,12.10
2018-12-25T21:47:52.939Z,11.77
2018-12-25T21:50:22.327Z,11.80
2018-12-25T21:52:53.003Z,12.90
2018-12-25T21:55:22.278Z,11.70
2018-12-25T21:57:52.126Z,12.20
2018-12-25T22:00:22.982Z,12.13
2018-12-25T22:02:52.524Z,11.77
2018-12-25T22:05:21.922Z,12.00
2018-12-25T22:07:51.348Z,12.13
2018-12-25T22:10:20.618Z,11.87
2018-12-25T22:12:49.921Z,13.13
2018-12-25T22:15:19.219Z,12.10
2018-12-25T22:17:48.570Z,12.40
2018-12-25T22:20:30.043Z,11.93
2018-12-25T22:22:59.336Z,12.07
2018-12-25T22:25:28.567Z,11.47
2018-12-25T22:27:57.771Z,11.47
2018-12-25T22:30:26.982Z,11.83
2018-12-25T22:32:56.234Z,11.43
2018-12-25T22:35:25.403Z,13.20
2018-12-25T22:37:54.901Z,12.77
2018-12-25T22:40:24.170Z,11.43
2018-12-25T22:42:53.585Z,11.63
2018-12-25T22:45:22.801Z,11.77
2018-12-25T22:47:52.139Z,11.93
2018-12-25T22:50:21.407Z,13.00
2018-12-25T22:52:52.007Z,12.10
2018-12-25T22:55:21.258Z,12.47
2018-12-25T22:57:50.450Z,12.07
2018-12-25T23:00:19.986Z,12.53
2018-12-25T23:02:49.198Z,11.80
2018-12-25T23:05:18.473Z,13.53
2018-12-25T23:07:47.693Z,13.20
2018-12-25T23:10:16.861Z,12.57
2018-12-25T23:12:46.055Z,12.57
2018-12-25T23:15:15.255Z,12.93
2018-12-25T23:17:44.486Z,13.20
2018-12-25T23:20:13.775Z,12.40
2018-12-25T23:22:43.120Z,13.10
2018-12-25T23:25:12.411Z,12.27
2018-12-25T23:27:41.582Z,13.40
2018-12-25T23:30:10.763Z,13.53
2018-12-25T23:32:39.965Z,12.83
2018-12-25T23:35:09.220Z,13.53
2018-12-25T23:37:38.422Z,12.63
2018-12-25T23:40:07.578Z,11.73
2018-12-25T23:42:36.746Z,13.43
2018-12-25T23:45:06.238Z,12.63
2018-12-25T23:47:35.432Z,13.40
2018-12-25T23:50:04.642Z,12.47
2018-12-25T23:52:33.946Z,12.80
2018-12-25T23:55:03.170Z,13.60
2018-12-25T23:57:32.378Z,12.53
